Time;durP1;ratioP1;P1;durP2;ratioP2;P2;SDS_P1;SDS_P2;PMS_P1;PMS_P2;Temp;Humidity;BMP_temperature;BMP_pressure;BME280_temperature;BME280_humidity;BME280_pressure;Samples;Min_cycle;Max_cycle;Signal;HPM_P1;HPM_P2
2022/01/21 00:01:30;;;;;;;13.65;8.25;;;;;;;15.34;42.10;93584.88;4930625;29;20399;-89
2022/01/21 00:03:55;;;;;;;11.10;7.47;;;;;;;15.37;41.82;93594.78;4870403;29;20051;-89
2022/01/21 00:06:21;;;;;;;10.95;7.03;;;;;;;15.38;42.08;93603.69;4901347;29;20044;-88
2022/01/21 00:08:47;;;;;;;10.95;7.75;;;;;;;15.42;41.82;93601.50;4901617;29;20048;-88
2022/01/21 00:11:12;;;;;;;10.68;7.13;;;;;;;15.41;41.82;93591.84;4901416;29;20052;-88
2022/01/21 00:13:40;;;;;;;10.32;7.45;;;;;;;15.41;41.86;93598.03;4905128;29;20051;-88
2022/01/21 00:16:07;;;;;;;10.23;7.05;;;;;;;15.40;41.69;93599.25;4902316;29;20078;-88
2022/01/21 00:18:35;;;;;;;11.40;7.45;;;;;;;15.47;41.38;93608.97;4903209;29;20058;-88
2022/01/21 00:31:58;;;;;;;9.60;7.45;;;;;;;15.35;41.61;93616.34;4904009;29;20059;-89
2022/01/21 00:34:24;;;;;;;7.75;5.95;;;;;;;15.38;41.96;93623.50;4902391;28;20036;-89
2022/01/21 00:36:49;;;;;;;9.95;6.57;;;;;;;15.40;41.93;93628.47;4914540;29;20043;-88
2022/01/21 00:39:15;;;;;;;12.57;8.07;;;;;;;15.37;41.95;93629.47;4917262;28;20054;-88
2022/01/21 00:41:53;;;;;;;13.05;9.45;;;;;;;15.33;42.40;93629.69;4965896;28;20126;-89
2022/01/21 00:44:18;;;;;;;7.93;6.40;;;;;;;15.37;42.12;93626.75;4945650;28;20424;-89
2022/01/21 00:46:44;;;;;;;8.27;6.38;;;;;;;15.36;42.15;93642.34;4929779;29;20051;-89
2022/01/21 00:49:09;;;;;;;10.55;7.28;;;;;;;15.35;41.72;93651.75;4928129;28;20035;-89
2022/01/21 00:51:34;;;;;;;9.32;6.53;;;;;;;15.42;42.13;93645.84;4949075;28;20027;-88
2022/01/21 00:54:00;;;;;;;10.77;7.25;;;;;;;15.40;41.86;93644.81;4949712;28;20035;-88
2022/01/21 00:56:25;;;;;;;11.63;7.57;;;;;;;15.42;41.95;93642.38;4932961;28;20085;-88
2022/01/21 00:58:50;;;;;;;8.10;5.70;;;;;;;15.42;41.81;93645.09;4947832;28;20046;-88
2022/01/21 01:01:16;;;;;;;19.75;8.18;;;;;;;15.37;41.94;93645.81;4931954;28;20431;-89
2022/01/21 01:03:41;;;;;;;8.10;6.32;;;;;;;15.40;41.70;93640.13;4936535;28;20038;-88
2022/01/21 01:06:08;;;;;;;12.57;8.18;;;;;;;15.37;41.69;93654.72;4964555;28;20292;-88
2022/01/21 01:08:34;;;;;;;8.60;6.13;;;;;;;15.40;41.99;93666.63;4950288;28;20057;-89
2022/01/21 01:11:17;;;;;;;9.63;6.72;;;;;;;15.32;42.28;93668.31;4962007;28;20039;-88
2022/01/21 01:22:08;;;;;;;9.82;6.55;;;;;;;15.38;41.89;93682.69;4922423;29;20052;-88
2022/01/21 01:27:41;;;;;;;11.90;8.30;;;;;;;15.32;41.95;93693.56;4896123;29;20125;-88
2022/01/21 01:30:17;;;;;;;8.18;6.13;;;;;;;15.30;41.99;93709.66;4908840;29;20554;-88
2022/01/21 01:32:43;;;;;;;9.05;6.32;;;;;;;15.29;42.16;93724.50;4906518;29;20040;-88
2022/01/21 01:35:10;;;;;;;8.82;6.43;;;;;;;15.33;42.10;93703.22;4904911;29;20044;-88
2022/01/21 01:38:15;;;;;;;10.13;6.55;;;;;;;15.35;41.96;93728.00;4890887;29;20048;-89
2022/01/21 01:40:50;;;;;;;9.07;6.50;;;;;;;15.34;42.58;93729.25;4910744;29;20188;-88
2022/01/21 01:49:26;;;;;;;10.98;7.32;;;;;;;15.33;42.17;93725.03;4893949;29;20036;-88
2022/01/21 01:51:47;;;;;;;9.00;6.82;;;;;;;15.37;41.76;93727.53;4871302;29;20101;-88
2022/01/21 01:54:12;;;;;;;10.85;6.47;;;;;;;15.34;42.01;93736.66;4883135;29;20045;-88
2022/01/21 01:56:42;;;;;;;10.20;6.93;;;;;;;15.38;41.71;93718.09;4867912;29;20057;-88
2022/01/21 01:59:07;;;;;;;12.35;8.35;;;;;;;15.42;41.66;93724.84;4868772;29;20052;-88
2022/01/21 02:01:33;;;;;;;7.45;5.82;;;;;;;15.46;41.66;93732.03;4884536;29;20041;-88
2022/01/21 02:03:58;;;;;;;19.83;11.40;;;;;;;15.44;41.64;93736.00;4887112;29;20037;-88
2022/01/21 02:06:23;;;;;;;7.60;5.50;;;;;;;15.36;41.96;93737.69;4889698;29;20040;-88
2022/01/21 02:08:49;;;;;;;9.20;6.60;;;;;;;15.35;41.99;93735.44;4891372;29;20044;-88
2022/01/21 02:11:14;;;;;;;16.50;10.65;;;;;;;15.34;42.07;93747.56;4889171;29;20615;-89
2022/01/21 02:13:47;;;;;;;9.07;5.82;;;;;;;15.32;41.88;93755.47;4889072;29;20040;-88
2022/01/21 02:21:46;;;;;;;11.95;8.05;;;;;;;15.37;41.82;93738.44;4876648;29;20043;-88
2022/01/21 02:24:15;;;;;;;6.68;4.93;;;;;;;15.35;41.64;93752.53;4872635;29;20040;-89
2022/01/21 02:26:51;;;;;;;21.85;13.35;;;;;;;15.31;42.01;93743.81;4943976;28;20039;-89
2022/01/21 02:29:43;;;;;;;9.57;6.88;;;;;;;15.33;41.80;93741.38;4962454;28;20039;-89
2022/01/21 02:32:10;;;;;;;12.07;7.15;;;;;;;15.33;41.80;93754.25;4953681;28;20050;-89
2022/01/21 02:34:36;;;;;;;8.60;5.65;;;;;;;15.30;41.95;93763.38;4928510;29;20047;-88
2022/01/21 02:37:02;;;;;;;10.50;5.97;;;;;;;15.35;41.77;93766.16;4943805;29;20103;-89
2022/01/21 02:39:29;;;;;;;5.75;4.40;;;;;;;15.33;41.75;93773.31;4927678;29;20042;-88
2022/01/21 02:41:55;;;;;;;6.47;4.63;;;;;;;15.30;42.14;93774.25;4943969;29;20096;-89
2022/01/21 02:44:20;;;;;;;10.27;7.07;;;;;;;15.34;42.40;93778.28;4959851;28;20031;-89
2022/01/21 02:46:47;;;;;;;14.40;8.40;;;;;;;15.40;42.16;93783.75;4943499;29;20511;-89
2022/01/21 02:49:13;;;;;;;11.35;7.20;;;;;;;15.36;41.82;93789.44;4927660;28;20039;-88
2022/01/21 02:51:40;;;;;;;8.02;5.47;;;;;;;15.34;41.66;93800.06;4911445;29;20103;-88
2022/01/21 02:54:08;;;;;;;8.15;5.63;;;;;;;15.33;41.83;93814.91;4912801;28;20040;-88
2022/01/21 02:56:36;;;;;;;10.80;7.35;;;;;;;15.32;41.81;93802.53;4928395;29;20043;-88
2022/01/21 02:59:11;;;;;;;7.25;5.13;;;;;;;15.40;41.67;93819.16;4911350;28;20044;-88
2022/01/21 03:01:37;;;;;;;12.43;8.30;;;;;;;15.40;41.57;93816.44;4926090;29;20047;-88
2022/01/21 03:04:04;;;;;;;12.45;7.35;;;;;;;15.35;41.73;93825.31;4925622;29;20040;-88
2022/01/21 03:06:29;;;;;;;12.25;7.78;;;;;;;15.30;41.87;93829.47;4924711;29;20039;-88
2022/01/21 03:08:57;;;;;;;6.78;5.35;;;;;;;15.36;41.72;93824.09;4924254;29;20047;-88
2022/01/21 03:11:32;;;;;;;8.27;6.13;;;;;;;15.34;41.76;93819.13;4909360;29;20040;-88
2022/01/21 03:13:58;;;;;;;8.77;6.18;;;;;;;15.37;41.69;93825.59;4926662;29;20043;-88
2022/01/21 03:16:25;;;;;;;12.57;9.38;;;;;;;15.41;41.58;93831.56;4925255;29;20050;-88
2022/01/21 03:18:53;;;;;;;8.60;5.60;;;;;;;15.42;41.56;93828.34;4942439;28;20039;-88
2022/01/21 03:21:19;;;;;;;6.57;4.57;;;;;;;15.41;41.54;93837.75;4924228;28;20056;-88
2022/01/21 03:23:47;;;;;;;10.88;5.45;;;;;;;15.43;41.45;93840.00;4924008;29;20035;-89
2022/01/21 03:26:15;;;;;;;17.05;10.32;;;;;;;15.48;41.21;93828.41;4943331;28;20040;-88
2022/01/21 03:28:40;;;;;;;11.85;5.70;;;;;;;15.38;41.67;93835.25;4925585;29;20036;-88
2022/01/21 03:31:06;;;;;;;7.38;4.53;;;;;;;15.35;41.83;93836.97;4926087;28;20051;-88
2022/01/21 03:33:32;;;;;;;10.77;6.90;;;;;;;15.38;41.49;93846.13;4926014;29;20031;-88
2022/01/21 03:35:57;;;;;;;8.05;5.43;;;;;;;15.38;41.49;93857.03;4923579;29;20054;-88
2022/01/21 03:38:27;;;;;;;9.43;6.60;;;;;;;15.35;41.35;93860.75;4940072;28;20048;-88
2022/01/21 03:40:53;;;;;;;13.98;7.75;;;;;;;15.43;41.64;93853.63;4963213;28;20042;-88
2022/01/21 03:43:19;;;;;;;9.65;5.72;;;;;;;15.32;41.79;93861.69;4932395;28;20046;-88
2022/01/21 03:45:45;;;;;;;10.65;7.60;;;;;;;15.33;41.81;93863.94;4949545;28;20506;-88
2022/01/21 03:48:11;;;;;;;8.20;5.15;;;;;;;15.35;41.73;93868.91;4948218;28;20074;-88
2022/01/21 03:50:38;;;;;;;7.57;5.22;;;;;;;15.29;41.45;93876.25;4948741;29;20031;-88
2022/01/21 03:53:04;;;;;;;7.60;4.97;;;;;;;15.30;41.54;93878.50;4965623;28;20039;-88
2022/01/21 03:55:39;;;;;;;7.55;4.78;;;;;;;15.33;41.49;93879.53;4933342;29;20574;-88
2022/01/21 03:58:07;;;;;;;7.95;4.95;;;;;;;15.32;41.46;93892.41;4932248;28;20035;-88
2022/01/21 04:00:41;;;;;;;6.50;4.55;;;;;;;15.38;41.26;93900.63;4947681;28;20039;-88
2022/01/21 04:03:06;;;;;;;8.75;6.22;;;;;;;15.37;41.71;93893.69;4947424;28;20513;-87
2022/01/21 04:05:32;;;;;;;10.35;7.30;;;;;;;15.30;41.54;93899.56;4946882;29;20365;-88
2022/01/21 04:07:58;;;;;;;7.63;5.03;;;;;;;15.32;41.85;93902.56;4963163;28;20051;-88
2022/01/21 04:10:23;;;;;;;8.60;5.80;;;;;;;15.25;41.57;93900.97;4930358;28;20070;-88
2022/01/21 04:12:49;;;;;;;9.82;6.45;;;;;;;15.32;41.51;93900.56;4931024;29;20044;-87
2022/01/21 04:15:15;;;;;;;12.27;8.20;;;;;;;15.32;41.81;93906.03;4962579;28;20088;-88
2022/01/21 04:17:41;;;;;;;9.88;6.70;;;;;;;15.36;41.37;93909.28;4930644;29;20035;-88
2022/01/21 04:20:10;;;;;;;13.52;8.02;;;;;;;15.28;41.49;93916.38;4930247;28;20046;-88
2022/01/21 04:22:35;;;;;;;5.97;4.68;;;;;;;15.31;41.28;93920.13;4946832;28;20070;-88
2022/01/21 04:25:01;;;;;;;7.43;5.28;;;;;;;15.36;41.04;93917.47;4931126;29;20047;-88
2022/01/21 04:27:26;;;;;;;6.40;4.75;;;;;;;15.41;41.25;93924.94;4947540;28;20550;-87
2022/01/21 04:29:52;;;;;;;7.07;4.50;;;;;;;15.34;41.30;93930.06;4946340;28;20043;-87
2022/01/21 04:32:17;;;;;;;6.88;4.97;;;;;;;15.30;41.11;93922.09;4929982;28;20046;-88
2022/01/21 04:34:42;;;;;;;5.75;4.28;;;;;;;15.34;41.32;93914.47;4956968;28;20042;-88
2022/01/21 04:37:11;;;;;;;10.23;7.10;;;;;;;15.28;41.33;93921.81;4948129;28;20457;-87
2022/01/21 04:39:42;;;;;;;6.50;4.68;;;;;;;15.24;41.70;93926.72;4951160;28;20031;-87
2022/01/21 04:47:36;;;;;;;8.27;5.63;;;;;;;15.33;41.22;93923.88;4967525;28;20449;-88
2022/01/21 04:50:09;;;;;;;10.10;6.88;;;;;;;15.32;41.24;93924.34;4961191;28;20494;-88
2022/01/21 04:52:34;;;;;;;12.65;7.47;;;;;;;15.32;41.08;93922.38;4961516;28;20042;-88
2022/01/21 04:55:00;;;;;;;7.63;5.78;;;;;;;15.32;41.54;93925.09;4930031;29;20043;-88
2022/01/21 04:57:25;;;;;;;9.23;5.50;;;;;;;15.32;41.18;93929.78;4927140;28;20054;-88
2022/01/21 04:59:51;;;;;;;6.60;4.80;;;;;;;15.32;41.64;93938.72;4938012;28;20051;-88
2022/01/21 05:02:16;;;;;;;5.65;4.47;;;;;;;15.25;41.69;93925.50;4946373;28;20042;-88
2022/01/21 05:04:44;;;;;;;15.25;10.48;;;;;;;15.25;41.43;93936.38;4964483;28;20086;-87
2022/01/21 05:07:12;;;;;;;8.60;5.03;;;;;;;15.29;41.09;93934.22;4934225;28;20062;-88
2022/01/21 05:09:37;;;;;;;11.35;6.70;;;;;;;15.27;41.34;93927.75;4949707;28;20058;-88
2022/01/21 05:12:08;;;;;;;6.75;4.82;;;;;;;15.28;41.31;93940.88;4934492;28;20043;-88
2022/01/21 05:15:04;;;;;;;8.45;6.13;;;;;;;15.27;41.09;93942.09;4952258;28;20043;-88
2022/01/21 05:17:30;;;;;;;8.02;5.38;;;;;;;15.25;41.37;93951.97;4953521;28;20039;-88
2022/01/21 05:19:57;;;;;;;12.27;8.45;;;;;;;15.20;41.39;93947.97;4951977;28;20035;-88
2022/01/21 05:22:23;;;;;;;6.18;3.88;;;;;;;15.23;41.43;93957.16;4951890;28;20030;-89
2022/01/21 05:25:18;;;;;;;7.45;5.00;;;;;;;15.25;41.10;93960.91;4953861;28;20043;-88
2022/01/21 05:27:45;;;;;;;8.98;4.88;;;;;;;15.29;40.83;93950.56;4912007;29;20044;-88
2022/01/21 05:30:11;;;;;;;8.02;5.32;;;;;;;15.25;41.13;93952.72;4897136;29;20055;-88
2022/01/21 05:32:36;;;;;;;11.43;7.43;;;;;;;15.30;41.12;93954.03;4928419;29;20039;-88
2022/01/21 05:35:02;;;;;;;6.78;5.18;;;;;;;15.31;40.81;93966.41;4917955;29;20091;-88
2022/01/21 05:37:28;;;;;;;7.68;4.75;;;;;;;15.34;40.79;93970.91;4894992;29;20059;-87
2022/01/21 05:39:54;;;;;;;7.88;3.80;;;;;;;15.40;40.78;93985.34;4924718;29;20047;-88
2022/01/21 05:42:20;;;;;;;33.08;24.42;;;;;;;15.47;40.89;93981.47;4888273;29;20063;-87
2022/01/21 05:47:11;;;;;;;31.83;17.88;;;;;;;15.54;40.84;93989.97;4902045;29;20036;-87
2022/01/21 05:49:37;;;;;;;7.22;5.15;;;;;;;15.48;41.09;93983.72;4915386;29;20048;-88
2022/01/21 05:52:16;;;;;;;49.03;30.90;;;;;;;15.52;41.21;93989.72;4895679;29;20071;-90
2022/01/21 05:54:43;;;;;;;288.70;210.85;;;;;;;15.57;41.13;93985.59;4882028;29;20456;-90
2022/01/21 05:57:11;;;;;;;14.15;9.05;;;;;;;15.59;41.52;93978.41;4882489;29;20056;-87
2022/01/21 05:59:37;;;;;;;13.43;8.40;;;;;;;15.56;40.64;93984.84;4904277;29;20063;-90
2022/01/21 06:02:03;;;;;;;8.80;5.43;;;;;;;15.48;40.55;93981.00;4928263;29;20045;-88
2022/01/21 06:04:40;;;;;;;8.98;5.55;;;;;;;15.50;40.62;93983.25;4909840;29;20087;-88
2022/01/21 06:07:06;;;;;;;8.80;6.28;;;;;;;15.49;40.35;93995.38;4943606;23;20051;-88
2022/01/21 06:09:31;;;;;;;11.30;7.68;;;;;;;15.40;40.75;93993.50;4923719;29;20042;-89
2022/01/21 06:11:58;;;;;;;10.73;7.85;;;;;;;15.34;40.63;93998.91;4949657;29;20038;-89
2022/01/21 06:14:26;;;;;;;7.65;4.85;;;;;;;15.33;41.02;93996.66;4965533;28;20342;-88
2022/01/21 06:16:54;;;;;;;7.95;4.70;;;;;;;15.33;41.03;94005.59;4962528;29;20066;-88
2022/01/21 06:19:21;;;;;;;11.93;8.70;;;;;;;15.30;40.84;94005.78;4932592;29;20038;-88
2022/01/21 06:21:57;;;;;;;11.38;7.43;;;;;;;15.24;41.18;94016.59;4946564;29;20043;-88
2022/01/21 06:24:22;;;;;;;9.63;7.13;;;;;;;15.33;40.91;94002.88;4930553;29;20039;-88
2022/01/21 06:26:59;;;;;;;7.18;4.68;;;;;;;15.29;40.77;94010.47;4948684;28;20043;-89
2022/01/21 06:29:25;;;;;;;5.28;3.80;;;;;;;15.31;41.07;94018.94;4949686;29;20043;-89
2022/01/21 06:31:50;;;;;;;6.50;4.22;;;;;;;15.29;40.94;94026.06;4948405;29;20020;-89
2022/01/21 06:34:16;;;;;;;11.80;7.85;;;;;;;15.34;40.91;94028.13;4948295;29;20039;-88
2022/01/21 06:36:41;;;;;;;5.10;3.83;;;;;;;15.30;40.81;94035.75;4932553;29;20047;-88
2022/01/21 06:39:06;;;;;;;12.43;9.13;;;;;;;15.33;40.83;94037.53;4948253;29;20043;-89
2022/01/21 06:41:32;;;;;;;10.98;6.70;;;;;;;15.33;40.70;94035.53;4949379;29;20075;-89
2022/01/21 06:43:58;;;;;;;6.25;4.25;;;;;;;15.29;40.58;94048.63;4947559;28;20039;-89
2022/01/21 06:46:23;;;;;;;9.32;6.43;;;;;;;15.30;40.65;94046.63;4931774;29;20469;-89
2022/01/21 06:48:49;;;;;;;9.15;5.65;;;;;;;15.33;40.73;94051.13;4956016;23;20102;-89
2022/01/21 06:51:14;;;;;;;6.70;4.82;;;;;;;15.31;40.85;94057.06;4937253;28;20035;-89
2022/01/21 06:53:39;;;;;;;7.97;4.68;;;;;;;15.36;40.63;94059.13;4939036;23;20048;-89
2022/01/21 06:56:05;;;;;;;7.53;4.95;;;;;;;15.27;40.97;94063.94;4947131;28;20035;-89
2022/01/21 06:58:30;;;;;;;7.70;4.80;;;;;;;15.29;40.85;94064.19;4929365;29;20072;-90
2022/01/21 07:00:56;;;;;;;5.63;3.88;;;;;;;15.33;40.71;94064.75;4959435;28;20044;-89
2022/01/21 07:03:30;;;;;;;11.27;6.60;;;;;;;15.30;41.01;94063.72;4926544;28;20040;-90
2022/01/21 07:06:02;;;;;;;5.13;3.95;;;;;;;15.31;40.88;94067.22;4944121;29;20042;-90
2022/01/21 07:08:27;;;;;;;11.38;3.33;;;;;;;15.34;40.56;94067.00;4908196;29;20059;-89
2022/01/21 07:10:53;;;;;;;10.95;4.22;;;;;;;15.38;40.61;94073.00;4904720;29;20043;-86
2022/01/21 07:13:19;;;;;;;10.07;5.72;;;;;;;15.43;40.37;94064.16;4916113;29;20040;-88
2022/01/21 07:15:44;;;;;;;11.48;8.05;;;;;;;15.39;40.53;94058.16;4916476;29;20056;-88
2022/01/21 07:18:10;;;;;;;8.75;5.53;;;;;;;15.29;40.91;94058.75;4934997;29;20036;-86
2022/01/21 07:20:35;;;;;;;6.30;4.05;;;;;;;15.30;40.97;94062.97;4917002;29;20036;-88
2022/01/21 07:23:00;;;;;;;9.40;3.83;;;;;;;15.36;40.96;94059.13;4950376;29;20043;-87
2022/01/21 07:25:27;;;;;;;6.85;3.80;;;;;;;15.37;40.80;94057.16;4905711;29;20519;-88
2022/01/21 07:27:52;;;;;;;5.97;2.95;;;;;;;15.37;40.48;94046.97;4921092;28;20047;-89
2022/01/21 07:30:20;;;;;;;7.68;4.00;;;;;;;15.36;40.94;94045.50;4925000;28;20039;-88
2022/01/21 07:32:45;;;;;;;6.75;3.85;;;;;;;15.36;40.70;94042.03;4945020;28;20052;-88
2022/01/21 07:35:11;;;;;;;6.15;3.70;;;;;;;15.39;40.61;94047.25;4937252;28;20040;-88
2022/01/21 07:37:36;;;;;;;7.13;4.25;;;;;;;15.37;40.75;94046.97;4920812;29;20047;-88
2022/01/21 07:40:03;;;;;;;8.75;3.45;;;;;;;15.37;40.44;94035.34;4935999;29;20048;-88
2022/01/21 07:42:29;;;;;;;7.35;4.68;;;;;;;15.45;40.15;94041.88;4921626;29;20040;-88
2022/01/21 07:44:55;;;;;;;10.00;4.97;;;;;;;15.35;40.60;94057.63;4924420;29;20511;-87
2022/01/21 07:47:20;;;;;;;11.98;4.93;;;;;;;15.39;40.96;94052.69;4940485;28;20046;-88
2022/01/21 07:49:46;;;;;;;5.47;3.45;;;;;;;15.48;40.31;94053.81;4941206;29;20372;-88
2022/01/21 07:52:11;;;;;;;8.77;3.80;;;;;;;15.39;40.36;94051.94;4921846;29;20055;-87
2022/01/21 07:54:37;;;;;;;4.45;2.92;;;;;;;15.44;40.51;94054.75;4929581;29;20438;-87
2022/01/21 07:57:04;;;;;;;7.38;4.47;;;;;;;15.46;40.30;94058.97;4964648;28;20054;-87
2022/01/21 07:59:29;;;;;;;5.93;3.70;;;;;;;15.51;40.28;94064.50;4948908;28;20079;-87
2022/01/21 08:01:55;;;;;;;7.18;4.18;;;;;;;15.49;40.23;94079.81;4959524;28;20042;-87
2022/01/21 08:04:21;;;;;;;7.68;3.50;;;;;;;15.50;40.42;94075.88;4980326;28;20121;-88
2022/01/21 08:06:46;;;;;;;7.57;3.25;;;;;;;15.51;40.23;94083.56;4983276;28;20035;-88
2022/01/21 08:09:24;;;;;;;4.57;3.33;;;;;;;15.55;40.23;94078.69;4951765;28;20387;-87
2022/01/21 08:11:50;;;;;;;5.35;3.58;;;;;;;15.55;40.13;94073.22;4949308;28;20043;-87
2022/01/21 08:14:16;;;;;;;10.32;4.05;;;;;;;15.63;39.82;94073.59;4943662;28;20039;-88
2022/01/21 08:16:41;;;;;;;6.35;3.65;;;;;;;15.62;39.95;94077.53;4953593;28;20039;-88
2022/01/21 08:19:07;;;;;;;13.48;3.95;;;;;;;15.63;39.80;94074.34;4953994;28;20038;-88
2022/01/21 08:21:32;;;;;;;11.63;4.68;;;;;;;15.71;40.05;94066.50;4924598;29;20035;-88
2022/01/21 08:23:58;;;;;;;15.68;5.85;;;;;;;15.80;39.63;94071.09;4934828;28;20368;-86
2022/01/21 08:26:24;;;;;;;6.68;4.65;;;;;;;15.77;39.87;94064.63;4938250;28;20031;-86
2022/01/21 08:28:51;;;;;;;17.10;9.65;;;;;;;15.80;39.70;94069.13;4922639;29;20047;-88
2022/01/21 08:31:16;;;;;;;10.82;4.28;;;;;;;15.76;39.96;94063.88;4948409;28;20038;-88
2022/01/21 08:33:42;;;;;;;7.57;4.88;;;;;;;15.75;39.83;94076.00;4928370;29;20035;-89
2022/01/21 08:36:08;;;;;;;7.05;4.78;;;;;;;15.72;39.70;94076.94;4939138;28;20082;-91
2022/01/21 08:38:34;;;;;;;7.97;4.82;;;;;;;15.72;39.52;94081.63;4940114;28;20046;-92
2022/01/21 08:41:00;;;;;;;9.50;4.47;;;;;;;15.70;39.26;94084.09;4932058;28;20074;-89
2022/01/21 08:43:26;;;;;;;12.77;4.85;;;;;;;15.69;39.58;94077.88;4964818;28;20035;-91
2022/01/21 08:45:53;;;;;;;12.38;4.75;;;;;;;15.75;39.19;94084.16;4940490;28;20083;-89
2022/01/21 08:48:20;;;;;;;14.43;4.43;;;;;;;15.59;32.57;94073.78;4940672;28;20067;-92
2022/01/21 08:50:45;;;;;;;14.13;3.85;;;;;;;15.40;30.67;94077.97;4934565;28;20409;-87
2022/01/21 08:56:11;;;;;;;9.18;4.22;;;;;;;15.12;28.01;94077.59;4974696;28;20065;-87
2022/01/21 08:58:41;;;;;;;11.57;4.00;;;;;;;15.12;27.91;94085.00;4958634;28;20101;-90
2022/01/21 09:01:10;;;;;;;43.60;6.22;;;;;;;15.22;29.97;94081.69;4889730;29;20140;-86
2022/01/21 09:03:37;;;;;;;15.73;5.88;;;;;;;15.17;28.86;94070.69;4882667;29;20105;-89
2022/01/21 09:06:02;;;;;;;23.40;6.88;;;;;;;15.23;29.13;94066.09;4887263;29;20098;-87
2022/01/21 09:08:30;;;;;;;26.50;8.63;;;;;;;15.19;29.87;94076.44;4894611;29;20516;-86
2022/01/21 09:10:58;;;;;;;26.02;8.93;;;;;;;15.33;31.19;94083.84;4889388;29;20044;-87
2022/01/21 09:13:26;;;;;;;21.45;7.57;;;;;;;15.29;32.03;94077.81;4884502;29;20044;-86
2022/01/21 09:15:54;;;;;;;22.02;6.50;;;;;;;15.35;32.92;94087.59;4876726;29;20041;-87
2022/01/21 09:18:20;;;;;;;18.08;5.80;;;;;;;15.36;33.80;94085.59;4863212;29;20040;-88
2022/01/21 09:20:46;;;;;;;12.25;4.82;;;;;;;15.39;33.98;94088.13;4895997;29;20135;-90
2022/01/21 09:23:12;;;;;;;13.85;7.28;;;;;;;15.46;33.54;94084.25;4861525;29;20582;-85
2022/01/21 09:25:37;;;;;;;14.30;4.57;;;;;;;15.36;33.17;94085.59;4839110;29;20108;-85
2022/01/21 09:28:03;;;;;;;11.25;4.68;;;;;;;15.42;33.32;94089.13;4893943;29;20120;-89
2022/01/21 09:30:29;;;;;;;12.38;4.70;;;;;;;15.35;33.48;94079.41;4878934;29;20045;-86
2022/01/21 09:32:57;;;;;;;10.80;5.57;;;;;;;15.41;34.23;94085.66;4863848;29;20560;-85
2022/01/21 09:35:24;;;;;;;13.05;4.10;;;;;;;15.53;34.82;94094.75;4876261;29;20076;-89
2022/01/21 09:37:50;;;;;;;15.25;5.13;;;;;;;15.49;34.92;94088.00;4888432;29;20044;-85
2022/01/21 09:40:16;;;;;;;7.53;3.50;;;;;;;15.52;35.05;94089.78;4897325;29;20056;-88
2022/01/21 09:42:52;;;;;;;10.57;3.70;;;;;;;15.46;35.22;94084.25;4855903;29;20047;-87
2022/01/21 09:45:22;;;;;;;6.90;3.45;;;;;;;15.53;34.99;94075.69;4910188;29;20048;-88
2022/01/21 09:47:49;;;;;;;9.18;3.80;;;;;;;15.49;35.29;94075.13;4920530;29;20108;-87
2022/01/21 09:50:17;;;;;;;10.80;3.95;;;;;;;15.54;35.55;94077.19;4890068;28;20062;-87
2022/01/21 09:52:48;;;;;;;9.32;4.57;;;;;;;15.59;35.36;94075.78;4950032;28;20422;-88
2022/01/21 09:55:14;;;;;;;;;;;;;;;15.59;35.46;94075.78;4933890;28;20113;-89
2022/01/21 09:57:41;;;;;;;13.38;5.28;;;;;;;15.60;35.32;94072.56;4967608;28;19929;-88
2022/01/21 10:00:26;;;;;;;8.30;3.20;;;;;;;15.58;35.64;94075.03;4952811;28;20019;-88
2022/01/21 10:02:53;;;;;;;8.27;4.25;;;;;;;15.56;35.83;94074.00;4969330;28;20046;-89
2022/01/21 10:05:19;;;;;;;8.23;4.95;;;;;;;15.62;36.08;94080.25;4952039;28;20079;-89
2022/01/21 10:07:46;;;;;;;10.50;5.20;;;;;;;15.58;35.84;94079.75;4968427;28;20090;-89
2022/01/21 10:10:13;;;;;;;7.18;3.95;;;;;;;15.57;35.57;94078.25;4963498;28;20130;-89
2022/01/21 10:12:39;;;;;;;5.57;3.60;;;;;;;15.56;35.81;94076.72;4960363;28;20053;-87
2022/01/21 10:15:13;;;;;;;7.80;4.80;;;;;;;15.58;35.74;94082.47;4980296;28;20062;-89
2022/01/21 10:17:39;;;;;;;8.27;4.45;;;;;;;15.62;35.78;94083.75;4964693;28;20066;-89
2022/01/21 10:20:12;;;;;;;6.28;3.10;;;;;;;15.60;35.56;94088.91;4978637;28;20041;-89
2022/01/21 10:22:38;;;;;;;8.13;4.63;;;;;;;15.58;35.96;94098.81;4959769;28;20054;-89
2022/01/21 10:25:06;;;;;;;6.03;2.90;;;;;;;15.57;35.90;94095.34;4960680;28;20367;-88
2022/01/21 10:27:35;;;;;;;12.00;3.85;;;;;;;15.62;35.91;94088.44;4960003;28;20031;-88
2022/01/21 10:30:01;;;;;;;9.88;4.82;;;;;;;15.63;35.91;94089.94;4965400;28;20042;-87
2022/01/21 10:32:39;;;;;;;7.28;3.92;;;;;;;15.60;35.93;94090.88;4948248;28;20647;-89
2022/01/21 10:35:21;;;;;;;21.58;5.03;;;;;;;15.61;35.95;94095.88;4964505;28;20112;-88
2022/01/21 10:37:47;;;;;;;8.38;3.95;;;;;;;15.57;35.98;94098.06;4950202;28;20045;-89
2022/01/21 10:40:12;;;;;;;9.63;3.83;;;;;;;15.59;35.93;94087.41;4950851;28;20043;-87
2022/01/21 10:42:40;;;;;;;6.88;3.45;;;;;;;15.59;36.00;94071.06;4962996;28;20033;-88
2022/01/21 10:45:06;;;;;;;6.38;3.97;;;;;;;15.64;36.13;94080.53;4972985;28;20081;-88
2022/01/21 10:47:34;;;;;;;6.18;3.35;;;;;;;15.56;36.27;94069.31;4951356;28;20035;-88
2022/01/21 10:50:07;;;;;;;7.63;4.88;;;;;;;15.67;36.18;94061.25;4963787;28;20031;-89
2022/01/21 10:52:38;;;;;;;6.82;3.78;;;;;;;15.62;35.98;94051.03;4967493;28;20141;-88
2022/01/21 10:55:06;;;;;;;9.35;3.90;;;;;;;15.61;36.30;94056.97;4955481;28;20044;-89
2022/01/21 10:57:32;;;;;;;6.65;3.33;;;;;;;15.62;36.23;94061.19;4958131;28;20031;-88
2022/01/21 11:02:34;;;;;;;10.60;4.35;;;;;;;15.61;36.56;94065.88;5020197;23;20482;-88
2022/01/21 11:05:06;;;;;;;10.45;3.72;;;;;;;15.65;36.28;94084.75;4973955;28;20041;-88
2022/01/21 11:08:00;;;;;;;10.90;3.55;;;;;;;15.65;36.34;94079.31;4954987;28;20034;-88
2022/01/21 11:10:32;;;;;;;13.38;3.53;;;;;;;15.66;36.34;94081.56;4954210;28;20123;-88
2022/01/21 11:13:10;;;;;;;15.82;4.25;;;;;;;15.68;36.42;94081.09;4968566;28;20043;-88
2022/01/21 11:15:42;;;;;;;9.45;4.18;;;;;;;15.60;36.48;94063.63;4968347;28;20045;-89
2022/01/21 11:18:13;;;;;;;6.35;3.15;;;;;;;15.62;36.46;94069.34;4951823;28;20042;-89
2022/01/21 11:20:42;;;;;;;11.65;3.88;;;;;;;15.65;36.50;94068.41;4983991;28;20042;-88
2022/01/21 11:23:10;;;;;;;9.13;3.30;;;;;;;15.61;36.49;94065.88;4984662;28;20528;-88
2022/01/21 11:25:42;;;;;;;9.73;3.20;;;;;;;15.62;36.43;94055.72;4984258;28;20046;-88
2022/01/21 11:28:08;;;;;;;8.32;2.92;;;;;;;15.60;36.39;94050.00;4982334;28;20553;-88
2022/01/21 11:30:33;;;;;;;5.88;2.65;;;;;;;15.63;36.45;94055.25;4984116;28;20042;-87
2022/01/21 11:32:59;;;;;;;5.15;3.10;;;;;;;15.66;36.39;94042.66;4967145;28;20145;-88
2022/01/21 11:35:25;;;;;;;5.05;2.20;;;;;;;15.66;36.47;94037.22;4982055;28;20437;-88
2022/01/21 11:37:51;;;;;;;4.38;2.70;;;;;;;15.62;36.28;94034.69;4964539;28;20101;-87
2022/01/21 11:40:16;;;;;;;11.63;3.95;;;;;;;15.64;36.58;94034.97;4935266;28;20034;-89
2022/01/21 11:42:41;;;;;;;5.90;3.60;;;;;;;15.60;36.34;94037.13;4965000;28;20043;-88
2022/01/21 11:45:23;;;;;;;7.53;2.42;;;;;;;15.57;36.75;94038.09;4946862;28;20513;-88
2022/01/21 11:48:00;;;;;;;6.80;3.20;;;;;;;15.57;36.91;94037.34;4954627;28;20133;-89
2022/01/21 11:50:45;;;;;;;5.63;3.20;;;;;;;15.55;36.68;94040.53;4978342;28;20381;-88
2022/01/21 11:53:11;;;;;;;2.95;2.33;;;;;;;15.66;36.56;94035.22;4962700;28;20046;-87
2022/01/21 11:55:41;;;;;;;6.57;3.38;;;;;;;15.63;36.86;94030.72;4967323;28;20117;-89
2022/01/21 11:58:17;;;;;;;4.57;2.60;;;;;;;15.63;36.94;94036.19;4963110;28;20050;-86
2022/01/21 12:00:43;;;;;;;4.50;2.35;;;;;;;15.66;36.87;94029.78;4979178;28;20047;-88
2022/01/21 12:03:08;;;;;;;6.15;2.42;;;;;;;15.65;36.59;94031.00;4963858;28;20062;-87
2022/01/21 12:05:39;;;;;;;4.70;1.90;;;;;;;15.61;36.93;94046.81;4949712;28;20752;-87
2022/01/21 12:08:06;;;;;;;3.38;2.03;;;;;;;15.62;36.74;94040.13;4949595;28;20055;-87
2022/01/21 12:10:37;;;;;;;4.18;2.00;;;;;;;15.60;36.52;94030.94;4982537;28;20118;-89
2022/01/21 12:13:08;;;;;;;3.60;2.63;;;;;;;15.66;36.65;94031.75;4981115;28;20126;-87
2022/01/21 12:18:08;;;;;;;3.77;1.73;;;;;;;15.69;36.75;94023.38;4983157;28;19918;-89
2022/01/21 12:20:36;;;;;;;3.17;1.90;;;;;;;15.62;36.78;94012.88;4984415;28;20768;-86
2022/01/21 12:23:12;;;;;;;4.68;1.92;;;;;;;15.64;36.97;94009.69;4965119;28;20047;-87